createdAt,value
2022-12-25T00:00:39.305Z,89
2022-12-25T00:01:46.337Z,89
2022-12-25T00:02:53.621Z,89
2022-12-25T00:04:00.177Z,89
2022-12-25T00:05:07.084Z,89
2022-12-25T00:06:14.199Z,90
2022-12-25T00:07:21.333Z,90
2022-12-25T00:08:28.380Z,90
2022-12-25T00:09:35.116Z,90
2022-12-25T00:10:45.378Z,90
2022-12-25T00:11:49.200Z,91
2022-12-25T00:12:56.314Z,91
2022-12-25T00:14:03.552Z,91
2022-12-25T00:15:10.124Z,91
2022-12-25T00:17:24.216Z,92
2022-12-25T00:19:38.425Z,92
2022-12-25T00:20:45.100Z,92
2022-12-25T00:21:52.198Z,92
2022-12-25T00:22:59.202Z,92
2022-12-25T00:24:06.347Z,92
2022-12-25T00:25:12.973Z,92
2022-12-25T00:26:20.087Z,92
2022-12-25T00:27:27.112Z,92
2022-12-25T00:28:34.237Z,93
2022-12-25T00:29:41.423Z,93
2022-12-25T00:30:48.431Z,93
2022-12-25T00:31:54.574Z,93
2022-12-25T00:33:02.148Z,93
2022-12-25T00:34:09.217Z,93
2022-12-25T00:35:16.351Z,93
2022-12-25T00:36:23.059Z,94
2022-12-25T00:37:30.696Z,93
2022-12-25T00:38:37.107Z,93
2022-12-25T00:39:44.244Z,94
2022-12-25T00:40:51.381Z,94
2022-12-25T00:41:57.998Z,94
2022-12-25T00:43:05.081Z,94
2022-12-25T00:44:12.144Z,95
2022-12-25T00:45:19.332Z,95
2022-12-25T00:46:26.528Z,95
2022-12-25T00:47:33.545Z,94
2022-12-25T00:48:40.203Z,95
2022-12-25T00:49:47.137Z,94
2022-12-25T00:50:54.297Z,95
2022-12-25T00:52:01.367Z,95
2022-12-25T00:53:07.952Z,95
2022-12-25T00:54:15.114Z,95
2022-12-25T00:55:22.190Z,95
2022-12-25T00:56:29.384Z,95
2022-12-25T00:57:36.372Z,96
2022-12-25T00:58:42.987Z,96
2022-12-25T00:59:50.079Z,96
2022-12-25T01:00:57.383Z,96
2022-12-25T01:02:04.404Z,96
2022-12-25T01:03:11.440Z,96
2022-12-25T01:04:17.983Z,97
2022-12-25T01:05:25.135Z,98
2022-12-25T01:06:32.257Z,97
2022-12-25T01:07:39.303Z,97
2022-12-25T01:08:46.424Z,97
2022-12-25T01:09:52.987Z,98
2022-12-25T01:11:00.210Z,97
2022-12-25T01:12:07.213Z,98
2022-12-25T01:13:13.819Z,98
2022-12-25T01:14:21.415Z,98
2022-12-25T01:15:28.000Z,99
2022-12-25T01:16:35.237Z,98
2022-12-25T01:17:42.239Z,98
2022-12-25T01:18:49.304Z,99
2022-12-25T01:19:56.430Z,99
2022-12-25T01:21:03.032Z,99
2022-12-25T01:23:17.209Z,99
2022-12-25T01:24:24.357Z,99
2022-12-25T01:25:31.373Z,99
2022-12-25T01:26:38.024Z,99
2022-12-25T01:27:45.122Z,99
2022-12-25T01:28:52.210Z,99
2022-12-25T01:29:59.329Z,99
2022-12-25T01:31:06.440Z,99
2022-12-25T01:32:13.112Z,99
2022-12-25T01:33:20.122Z,99
2022-12-25T01:34:27.187Z,99
2022-12-25T01:35:34.377Z,99
2022-12-25T01:36:41.447Z,99
2022-12-25T01:37:48.047Z,99
2022-12-25T01:38:55.156Z,99
2022-12-25T01:40:02.241Z,99
2022-12-25T01:41:09.857Z,99
2022-12-25T01:42:16.464Z,99
2022-12-25T01:43:23.066Z,99
2022-12-25T01:45:37.319Z,99
2022-12-25T01:46:44.401Z,99
2022-12-25T01:47:50.943Z,99
2022-12-25T01:48:58.032Z,99
2022-12-25T01:50:05.189Z,99
2022-12-25T01:51:12.300Z,99
2022-12-25T01:52:23.876Z,99
2022-12-25T01:53:25.918Z,99
2022-12-25T01:54:32.557Z,99
2022-12-25T01:55:40.169Z,99
2022-12-25T01:56:47.378Z,99
2022-12-25T01:57:54.410Z,99
2022-12-25T01:59:01.595Z,99
2022-12-25T02:00:08.051Z,99
2022-12-25T02:01:15.301Z,99
2022-12-25T02:02:22.513Z,99
2022-12-25T02:03:29.445Z,99
2022-12-25T02:04:39.127Z,99
2022-12-25T02:05:43.057Z,99
2022-12-25T02:06:50.215Z,99
2022-12-25T02:07:57.265Z,99
2022-12-25T02:09:04.386Z,99
2022-12-25T02:10:10.984Z,99
2022-12-25T02:11:18.069Z,99
2022-12-25T02:12:25.255Z,99
2022-12-25T02:13:32.243Z,99
2022-12-25T02:14:39.343Z,99
2022-12-25T02:15:46.012Z,99
2022-12-25T02:16:56.538Z,99
2022-12-25T02:18:00.215Z,99
2022-12-25T02:19:07.238Z,99
2022-12-25T02:20:14.381Z,99
2022-12-25T02:21:21.052Z,99
2022-12-25T02:22:28.131Z,99
2022-12-25T02:24:42.484Z,99
2022-12-25T02:26:55.976Z,99
2022-12-25T02:28:03.126Z,99
2022-12-25T02:29:10.204Z,99
2022-12-25T02:30:17.267Z,99
2022-12-25T02:31:24.513Z,99
2022-12-25T02:32:31.057Z,99
2022-12-25T02:33:38.060Z,99
2022-12-25T02:34:45.219Z,99
2022-12-25T02:36:59.367Z,99
2022-12-25T02:38:06.036Z,99
2022-12-25T02:39:13.097Z,99
2022-12-25T02:40:20.165Z,99
2022-12-25T02:41:27.288Z,99
2022-12-25T02:42:34.498Z,99
2022-12-25T02:43:40.985Z,99
2022-12-25T02:44:48.597Z,99
2022-12-25T02:45:55.260Z,99
2022-12-25T02:47:02.450Z,99
2022-12-25T02:48:09.441Z,99
2022-12-25T02:49:16.030Z,99
2022-12-25T02:50:23.125Z,99
2022-12-25T02:51:30.239Z,99
2022-12-25T02:52:37.354Z,99
2022-12-25T02:53:44.482Z,99
2022-12-25T02:54:51.019Z,99
2022-12-25T02:55:58.076Z,99
2022-12-25T02:57:05.314Z,99
2022-12-25T02:58:12.378Z,99
2022-12-25T02:59:19.413Z,99
2022-12-25T03:00:26.072Z,99
2022-12-25T03:01:33.248Z,99
2022-12-25T03:02:40.252Z,99
2022-12-25T03:03:47.446Z,99
2022-12-25T03:04:54.499Z,99
2022-12-25T03:06:01.026Z,99
2022-12-25T03:07:08.225Z,99
2022-12-25T03:08:15.265Z,99
2022-12-25T03:09:22.380Z,99
2022-12-25T03:10:28.940Z,99
2022-12-25T03:11:36.060Z,99
2022-12-25T03:13:50.246Z,99
2022-12-25T03:14:57.368Z,99
2022-12-25T03:16:04.001Z,99
2022-12-25T03:18:18.191Z,99
2022-12-25T03:19:25.274Z,99
2022-12-25T03:20:32.395Z,99
2022-12-25T03:21:38.946Z,99
2022-12-25T03:22:46.105Z,99
2022-12-25T03:23:53.218Z,99
2022-12-25T03:25:00.255Z,99
2022-12-25T03:26:07.378Z,99
2022-12-25T03:27:14.053Z,99
2022-12-25T03:28:21.099Z,99
2022-12-25T03:29:31.757Z,99
2022-12-25T03:30:35.325Z,99
2022-12-25T03:31:42.774Z,99
2022-12-25T03:32:48.981Z,99
2022-12-25T03:33:56.061Z,99
2022-12-25T03:35:03.314Z,99
2022-12-25T03:36:10.271Z,98
2022-12-25T03:37:17.399Z,99
2022-12-25T03:38:24.007Z,98
2022-12-25T03:39:31.125Z,98
2022-12-25T03:40:38.199Z,98
2022-12-25T03:41:45.407Z,98
2022-12-25T03:42:52.394Z,97
2022-12-25T03:43:58.998Z,98
2022-12-25T03:45:06.120Z,98
2022-12-25T03:46:13.324Z,98
2022-12-25T03:47:20.340Z,98
2022-12-25T03:48:27.420Z,99
2022-12-25T03:49:33.970Z,99
2022-12-25T03:50:41.124Z,98
2022-12-25T03:51:48.234Z,98
2022-12-25T03:52:55.346Z,98
2022-12-25T03:54:02.446Z,98
2022-12-25T03:55:08.981Z,98
2022-12-25T03:56:16.129Z,98
2022-12-25T03:57:23.284Z,98
2022-12-25T03:59:37.438Z,98
2022-12-25T04:00:44.068Z,98
2022-12-25T04:01:51.286Z,98
2022-12-25T04:02:58.262Z,99
2022-12-25T04:04:05.354Z,98
2022-12-25T04:05:12.447Z,98
2022-12-25T04:06:19.009Z,99
2022-12-25T04:07:26.217Z,99
2022-12-25T04:08:33.277Z,99
2022-12-25T04:09:40.357Z,99
2022-12-25T04:10:47.441Z,99
2022-12-25T04:12:00.446Z,98
2022-12-25T04:13:01.117Z,98
2022-12-25T04:14:08.218Z,99
2022-12-25T04:15:15.346Z,98
2022-12-25T04:16:21.978Z,98
2022-12-25T04:17:29.049Z,98
2022-12-25T04:18:36.177Z,98
2022-12-25T04:19:43.237Z,98
2022-12-25T04:20:50.334Z,98
2022-12-25T04:21:56.956Z,98
2022-12-25T04:23:04.063Z,97
2022-12-25T04:24:11.131Z,98
2022-12-25T04:25:18.252Z,97
2022-12-25T04:26:25.384Z,97
2022-12-25T04:27:32.042Z,97
2022-12-25T04:28:39.064Z,97
2022-12-25T04:29:46.170Z,97
2022-12-25T04:30:53.338Z,96
2022-12-25T04:32:00.411Z,96
2022-12-25T04:34:14.081Z,96
2022-12-25T04:35:21.206Z,96
2022-12-25T04:36:28.216Z,96
2022-12-25T04:37:35.441Z,96
2022-12-25T04:38:42.063Z,96
2022-12-25T04:42:03.365Z,96
2022-12-25T04:43:10.394Z,96
2022-12-25T04:44:16.917Z,96
2022-12-25T04:45:24.061Z,96
2022-12-25T04:46:31.291Z,97
2022-12-25T04:47:38.343Z,97
2022-12-25T04:48:45.361Z,97
2022-12-25T04:49:51.979Z,97
2022-12-25T04:50:59.081Z,97
2022-12-25T04:52:06.774Z,96
2022-12-25T04:53:13.332Z,96
2022-12-25T04:54:20.367Z,96
2022-12-25T04:55:26.965Z,96
2022-12-25T04:56:35.013Z,96
2022-12-25T04:57:41.244Z,96
2022-12-25T04:58:48.321Z,96
2022-12-25T04:59:55.355Z,95
2022-12-25T05:01:02.012Z,96
2022-12-25T05:02:09.304Z,95
2022-12-25T05:03:16.390Z,95
2022-12-25T05:04:23.348Z,95
2022-12-25T05:05:30.438Z,94
2022-12-25T05:06:36.988Z,94
2022-12-25T05:07:44.153Z,94
2022-12-25T05:08:51.189Z,94
2022-12-25T05:09:58.355Z,93
2022-12-25T05:11:05.575Z,93
2022-12-25T05:12:12.050Z,93
2022-12-25T05:13:19.086Z,93
2022-12-25T05:14:26.209Z,93
2022-12-25T05:15:33.458Z,93
2022-12-25T05:16:40.414Z,92
2022-12-25T05:17:47.058Z,92
2022-12-25T05:18:54.096Z,92
2022-12-25T05:20:01.245Z,92
2022-12-25T05:21:07.809Z,92
2022-12-25T05:22:15.543Z,91
2022-12-25T05:23:22.067Z,91
2022-12-25T05:24:29.073Z,91
2022-12-25T05:25:36.251Z,91
2022-12-25T05:26:43.427Z,91
2022-12-25T05:27:54.006Z,90
2022-12-25T05:28:56.973Z,90
2022-12-25T05:30:04.107Z,90
2022-12-25T05:31:11.341Z,90
2022-12-25T05:32:18.360Z,90
2022-12-25T05:33:25.469Z,90
2022-12-25T05:34:32.072Z,90
2022-12-25T05:35:39.188Z,90
2022-12-25T05:37:53.428Z,90
2022-12-25T05:38:59.934Z,90
2022-12-25T05:40:07.039Z,90
2022-12-25T05:41:14.159Z,90
2022-12-25T05:42:21.243Z,89
2022-12-25T05:43:28.367Z,89
2022-12-25T05:44:34.948Z,89
2022-12-25T05:45:42.057Z,89
2022-12-25T05:46:49.196Z,89
2022-12-25T05:47:56.327Z,89
2022-12-25T05:49:03.402Z,89
2022-12-25T05:50:09.936Z,89
2022-12-25T05:51:17.146Z,89
2022-12-25T05:52:24.141Z,88
2022-12-25T05:53:31.275Z,88
2022-12-25T05:54:38.824Z,88
2022-12-25T05:55:45.507Z,88
2022-12-25T05:56:52.115Z,88
2022-12-25T05:57:59.235Z,88
2022-12-25T05:59:06.296Z,88
2022-12-25T06:00:13.396Z,88
2022-12-25T06:01:20.054Z,88
2022-12-25T06:03:34.283Z,87
2022-12-25T06:04:41.367Z,87
2022-12-25T06:05:48.411Z,87
2022-12-25T06:06:55.005Z,87
2022-12-25T06:08:02.161Z,87
2022-12-25T06:10:16.317Z,86
2022-12-25T06:11:23.422Z,86
2022-12-25T06:12:30.107Z,86
2022-12-25T06:13:37.083Z,86
2022-12-25T06:14:44.207Z,86
2022-12-25T06:15:51.380Z,86
2022-12-25T06:16:58.576Z,86
2022-12-25T06:18:05.073Z,85
2022-12-25T06:19:12.088Z,85
2022-12-25T06:20:19.201Z,85
2022-12-25T06:21:26.273Z,85
2022-12-25T06:22:33.441Z,85
2022-12-25T06:23:40.127Z,85
2022-12-25T06:24:47.124Z,86
2022-12-25T06:25:54.232Z,86
2022-12-25T06:27:01.388Z,85
2022-12-25T06:28:08.409Z,85
2022-12-25T06:29:14.987Z,85
2022-12-25T06:30:22.149Z,85
2022-12-25T06:31:29.315Z,85
2022-12-25T06:32:36.312Z,85
2022-12-25T06:33:43.488Z,84
2022-12-25T06:34:49.999Z,84
2022-12-25T06:35:57.109Z,84
2022-12-25T06:37:04.299Z,84
2022-12-25T06:38:11.284Z,84
2022-12-25T06:39:18.426Z,84
2022-12-25T06:41:32.099Z,84
2022-12-25T06:42:39.226Z,84
2022-12-25T06:44:53.498Z,84
2022-12-25T06:46:00.620Z,84
2022-12-25T06:47:07.207Z,84
2022-12-25T06:48:14.256Z,84
2022-12-25T06:49:21.344Z,84
2022-12-25T06:50:28.403Z,84
2022-12-25T06:51:35.062Z,84
2022-12-25T06:52:42.180Z,84
2022-12-25T06:53:49.237Z,84
2022-12-25T06:54:56.331Z,84
2022-12-25T06:56:03.498Z,84
2022-12-25T06:57:10.075Z,84
2022-12-25T06:58:17.144Z,84
2022-12-25T06:59:24.813Z,84
2022-12-25T07:00:31.448Z,84
2022-12-25T07:01:38.588Z,84
2022-12-25T07:02:45.192Z,84
2022-12-25T07:03:52.150Z,84
2022-12-25T07:04:59.211Z,84
2022-12-25T07:06:06.393Z,84
2022-12-25T07:07:13.533Z,84
2022-12-25T07:08:20.022Z,84
2022-12-25T07:09:27.114Z,84
2022-12-25T07:10:34.315Z,84
2022-12-25T07:11:41.375Z,84
2022-12-25T07:12:48.467Z,84
2022-12-25T07:13:55.039Z,84
2022-12-25T07:15:02.134Z,84
2022-12-25T07:16:09.292Z,84
2022-12-25T07:17:16.478Z,84
2022-12-25T07:18:22.972Z,84
2022-12-25T07:19:30.047Z,84
2022-12-25T07:20:37.174Z,84
2022-12-25T07:21:44.268Z,84
2022-12-25T07:22:51.406Z,84
2022-12-25T07:23:57.929Z,84
2022-12-25T07:26:12.193Z,83
2022-12-25T07:27:19.356Z,83
2022-12-25T07:28:26.396Z,83
2022-12-25T07:29:33.526Z,83
2022-12-25T07:30:40.071Z,83
2022-12-25T07:31:47.218Z,83
2022-12-25T07:32:54.326Z,83
2022-12-25T07:34:01.411Z,83
2022-12-25T07:35:08.465Z,83
2022-12-25T07:36:15.051Z,84
2022-12-25T07:38:29.374Z,84
2022-12-25T07:39:36.404Z,84
2022-12-25T07:40:42.962Z,84
2022-12-25T07:41:50.094Z,84
2022-12-25T07:42:57.260Z,84
2022-12-25T07:44:04.297Z,83
2022-12-25T07:45:11.434Z,83
2022-12-25T07:46:18.081Z,83
2022-12-25T07:47:25.202Z,83
2022-12-25T07:48:32.250Z,84
2022-12-25T07:49:39.269Z,84
2022-12-25T07:50:46.407Z,84
2022-12-25T07:51:53.025Z,84
2022-12-25T07:53:00.173Z,84
2022-12-25T07:54:07.164Z,84
2022-12-25T07:55:14.312Z,84
2022-12-25T07:56:21.448Z,83
2022-12-25T07:57:27.971Z,83
2022-12-25T07:58:35.140Z,83
2022-12-25T07:59:42.272Z,83
2022-12-25T08:00:49.392Z,83
2022-12-25T08:01:56.630Z,83
2022-12-25T08:03:04.455Z,83
2022-12-25T08:04:10.194Z,83
2022-12-25T08:06:23.809Z,83
2022-12-25T08:07:31.476Z,82
2022-12-25T08:08:38.030Z,82
2022-12-25T08:09:45.135Z,82
2022-12-25T08:10:52.270Z,82
2022-12-25T08:11:59.355Z,82
2022-12-25T08:13:12.412Z,82
2022-12-25T08:14:13.047Z,82
2022-12-25T08:15:20.123Z,82
2022-12-25T08:16:27.293Z,82
2022-12-25T08:17:34.327Z,82
2022-12-25T08:18:41.448Z,82
2022-12-25T08:19:48.017Z,82
2022-12-25T08:20:55.140Z,82
2022-12-25T08:22:02.240Z,82
2022-12-25T08:23:09.384Z,82
2022-12-25T08:24:16.487Z,82
2022-12-25T08:25:23.104Z,82
2022-12-25T08:26:30.120Z,82
2022-12-25T08:27:37.268Z,82
2022-12-25T08:28:44.371Z,82
2022-12-25T08:29:51.491Z,82
2022-12-25T08:30:58.137Z,82
2022-12-25T08:32:05.147Z,82
2022-12-25T08:34:19.416Z,82
2022-12-25T08:35:26.528Z,82
2022-12-25T08:36:33.058Z,82
2022-12-25T08:37:40.126Z,81
2022-12-25T08:38:47.316Z,81
2022-12-25T08:39:54.389Z,81
2022-12-25T08:41:01.489Z,81
2022-12-25T08:42:08.059Z,81
2022-12-25T08:43:15.263Z,81
2022-12-25T08:44:22.306Z,81
2022-12-25T08:45:34.742Z,81
2022-12-25T08:46:39.727Z,81
2022-12-25T08:48:50.241Z,81
2022-12-25T08:49:57.318Z,81
2022-12-25T08:51:04.496Z,81
2022-12-25T08:52:11.497Z,81
2022-12-25T08:53:18.104Z,81
2022-12-25T08:54:25.193Z,81
2022-12-25T08:55:32.278Z,81
2022-12-25T08:56:39.383Z,81
2022-12-25T08:57:46.087Z,81
2022-12-25T08:58:53.100Z,81
2022-12-25T09:00:00.225Z,81
2022-12-25T09:02:14.772Z,81
2022-12-25T09:03:21.119Z,81
2022-12-25T09:04:28.075Z,81
2022-12-25T09:07:49.539Z,81
2022-12-25T09:08:56.546Z,81
2022-12-25T09:10:03.103Z,81
2022-12-25T09:11:10.238Z,81
2022-12-25T09:12:17.357Z,81
2022-12-25T09:13:24.464Z,80
2022-12-25T09:14:31.003Z,80
2022-12-25T09:15:38.232Z,80
2022-12-25T09:16:45.377Z,80
2022-12-25T09:17:52.392Z,80
2022-12-25T09:18:59.446Z,80
2022-12-25T09:20:05.999Z,79
2022-12-25T09:21:13.174Z,79
2022-12-25T09:22:20.256Z,79
2022-12-25T09:23:27.289Z,79
2022-12-25T09:24:34.435Z,79
2022-12-25T09:25:41.061Z,79
2022-12-25T09:26:48.152Z,79
2022-12-25T09:27:55.427Z,79
2022-12-25T09:30:09.458Z,78
2022-12-25T09:31:16.623Z,78
2022-12-25T09:32:23.182Z,78
2022-12-25T09:33:30.293Z,78
2022-12-25T09:34:39.009Z,78
2022-12-25T09:35:45.054Z,78
2022-12-25T09:36:51.089Z,78
2022-12-25T09:37:58.204Z,78
2022-12-25T09:39:05.289Z,78
2022-12-25T09:40:12.375Z,78
2022-12-25T09:41:19.446Z,78
2022-12-25T09:42:26.152Z,78
2022-12-25T09:43:33.196Z,78
2022-12-25T09:44:40.308Z,78
2022-12-25T09:45:47.422Z,78
2022-12-25T09:46:54.600Z,78
2022-12-25T09:48:01.118Z,78
2022-12-25T09:49:08.171Z,78
2022-12-25T09:50:15.327Z,78
2022-12-25T09:51:22.416Z,78
2022-12-25T09:52:29.447Z,78
2022-12-25T09:53:36.112Z,78
2022-12-25T09:54:43.164Z,78
2022-12-25T09:55:50.341Z,77
2022-12-25T09:56:57.399Z,77
2022-12-25T09:58:04.576Z,77
2022-12-25T09:59:11.106Z,77
2022-12-25T10:00:18.188Z,77
2022-12-25T10:01:25.392Z,77
2022-12-25T10:02:32.603Z,77
2022-12-25T10:03:40.124Z,77
2022-12-25T10:04:46.104Z,77
2022-12-25T10:05:53.215Z,77
2022-12-25T10:07:00.337Z,77
2022-12-25T10:08:07.449Z,77
2022-12-25T10:09:14.535Z,76
2022-12-25T10:11:28.186Z,76
2022-12-25T10:12:35.316Z,76
2022-12-25T10:13:42.454Z,76
2022-12-25T10:14:49.537Z,76
2022-12-25T10:15:56.146Z,75
2022-12-25T10:17:03.221Z,75
2022-12-25T10:18:10.377Z,75
2022-12-25T10:19:17.425Z,75
2022-12-25T10:20:24.555Z,75
2022-12-25T10:21:31.145Z,75
2022-12-25T10:22:38.215Z,75
2022-12-25T10:23:45.360Z,75
2022-12-25T10:24:52.491Z,75
2022-12-25T10:25:59.634Z,75
2022-12-25T10:27:06.136Z,75
2022-12-25T10:28:13.277Z,75
2022-12-25T10:29:20.277Z,75
2022-12-25T10:30:27.450Z,75
2022-12-25T10:32:41.231Z,75
2022-12-25T10:34:55.388Z,75
2022-12-25T10:36:02.455Z,74
2022-12-25T10:37:08.974Z,74
2022-12-25T10:38:16.210Z,74
2022-12-25T10:39:23.259Z,74
2022-12-25T10:40:30.322Z,74
2022-12-25T10:41:37.399Z,74
2022-12-25T10:42:44.592Z,74
2022-12-25T10:43:51.140Z,75
2022-12-25T10:44:58.204Z,75
2022-12-25T10:46:05.432Z,75
2022-12-25T10:47:12.494Z,75
2022-12-25T10:48:19.028Z,75
2022-12-25T10:49:26.104Z,75
2022-12-25T10:50:33.280Z,75
2022-12-25T10:51:39.893Z,74
2022-12-25T10:51:40.383Z,74
2022-12-25T10:52:47.514Z,74
2022-12-25T10:53:54.077Z,74
2022-12-25T10:55:01.150Z,75
2022-12-25T10:56:08.247Z,75
2022-12-25T10:57:15.407Z,74
2022-12-25T10:58:22.472Z,74
2022-12-25T10:59:29.063Z,74
2022-12-25T11:00:36.214Z,74
2022-12-25T11:01:43.342Z,74
2022-12-25T11:02:50.632Z,74
2022-12-25T11:03:57.604Z,75
2022-12-25T11:05:04.130Z,75
2022-12-25T11:06:11.169Z,75
2022-12-25T11:07:18.223Z,75
2022-12-25T11:08:25.423Z,75
2022-12-25T11:09:32.506Z,75
2022-12-25T11:10:40.111Z,75
2022-12-25T11:11:46.207Z,75
2022-12-25T11:12:53.327Z,75
2022-12-25T11:15:07.446Z,75
2022-12-25T11:16:14.072Z,74
2022-12-25T11:17:21.186Z,74
2022-12-25T11:18:28.271Z,75
2022-12-25T11:19:35.442Z,75
2022-12-25T11:20:47.066Z,75
2022-12-25T11:21:49.115Z,74
2022-12-25T11:22:56.268Z,75
2022-12-25T11:24:03.278Z,75
2022-12-25T11:25:10.423Z,74
2022-12-25T11:26:17.473Z,74
2022-12-25T11:28:31.277Z,74
2022-12-25T11:29:38.272Z,74
2022-12-25T11:30:45.407Z,74
2022-12-25T11:31:52.100Z,74
2022-12-25T11:32:59.112Z,74
2022-12-25T11:32:59.136Z,74
2022-12-25T11:34:06.201Z,73
2022-12-25T11:35:13.301Z,73
2022-12-25T11:36:20.406Z,73
2022-12-25T11:37:27.006Z,73
2022-12-25T11:38:34.145Z,73
2022-12-25T11:39:41.265Z,73
2022-12-25T11:40:48.273Z,73
2022-12-25T11:41:55.494Z,73
2022-12-25T11:43:07.654Z,73
2022-12-25T11:44:09.129Z,73
2022-12-25T11:45:16.235Z,73
2022-12-25T11:46:23.445Z,73
2022-12-25T11:47:30.460Z,73
2022-12-25T11:48:36.971Z,73
2022-12-25T11:49:49.407Z,73
2022-12-25T11:50:51.417Z,73
2022-12-25T11:51:58.332Z,73
2022-12-25T11:53:05.428Z,73
2022-12-25T11:54:12.584Z,73
2022-12-25T11:56:26.310Z,73
2022-12-25T11:57:33.423Z,72
2022-12-25T11:58:40.462Z,72
2022-12-25T11:59:47.020Z,72
2022-12-25T12:00:54.163Z,72
2022-12-25T12:03:08.372Z,72
2022-12-25T12:04:15.485Z,72
2022-12-25T12:05:22.055Z,71
2022-12-25T12:06:29.149Z,71
2022-12-25T12:07:36.289Z,71
2022-12-25T12:08:43.384Z,71
2022-12-25T12:09:50.463Z,71
2022-12-25T12:10:57.052Z,71
2022-12-25T12:12:04.168Z,71
2022-12-25T12:13:11.284Z,71
2022-12-25T12:14:18.325Z,71
2022-12-25T12:15:25.489Z,71
2022-12-25T12:16:32.296Z,71
2022-12-25T12:18:50.379Z,72
2022-12-25T12:19:53.392Z,72
2022-12-25T12:21:00.469Z,72
2022-12-25T12:22:07.052Z,72
2022-12-25T12:23:14.201Z,72
2022-12-25T12:24:21.283Z,72
2022-12-25T12:25:28.330Z,72
2022-12-25T12:26:35.465Z,72
2022-12-25T12:27:42.134Z,71
2022-12-25T12:28:49.129Z,71
2022-12-25T12:29:56.268Z,71
2022-12-25T12:31:03.369Z,71
2022-12-25T12:32:10.586Z,71
2022-12-25T12:33:17.058Z,71
2022-12-25T12:34:24.221Z,71
2022-12-25T12:35:31.317Z,71
2022-12-25T12:36:38.386Z,71
2022-12-25T12:37:45.036Z,71
2022-12-25T12:38:53.083Z,72
2022-12-25T12:39:59.177Z,72
2022-12-25T12:41:06.336Z,72
2022-12-25T12:42:13.409Z,72
2022-12-25T12:43:20.585Z,72
2022-12-25T12:44:27.085Z,72
2022-12-25T12:45:34.291Z,72
2022-12-25T12:46:41.353Z,72
2022-12-25T12:47:48.493Z,72
2022-12-25T12:48:55.523Z,71
2022-12-25T12:50:02.153Z,71
2022-12-25T12:51:09.195Z,71
2022-12-25T12:52:16.323Z,71
2022-12-25T12:53:23.556Z,71
2022-12-25T12:54:30.533Z,71
2022-12-25T12:55:37.111Z,71
2022-12-25T12:56:44.251Z,71
2022-12-25T12:57:50.889Z,71
2022-12-25T12:58:58.434Z,71
2022-12-25T13:00:10.802Z,71
2022-12-25T13:01:12.176Z,71
2022-12-25T13:02:19.334Z,71
2022-12-25T13:03:26.471Z,72
2022-12-25T13:04:33.516Z,72
2022-12-25T13:05:40.512Z,72
2022-12-25T13:06:47.071Z,72
2022-12-25T13:07:54.225Z,72
2022-12-25T13:09:01.347Z,72
2022-12-25T13:10:08.449Z,72
2022-12-25T13:11:14.999Z,72
2022-12-25T13:12:22.178Z,73
2022-12-25T13:13:29.283Z,73
2022-12-25T13:14:38.976Z,73
2022-12-25T13:15:43.566Z,73
2022-12-25T13:16:50.145Z,73
2022-12-25T13:17:57.147Z,73
2022-12-25T13:19:04.191Z,73
2022-12-25T13:20:11.365Z,73
2022-12-25T13:22:25.064Z,72
2022-12-25T13:23:32.181Z,72
2022-12-25T13:24:39.267Z,72
2022-12-25T13:26:53.492Z,72
2022-12-25T13:28:00.048Z,72
2022-12-25T13:29:11.430Z,72
2022-12-25T13:31:21.442Z,72
2022-12-25T13:32:28.426Z,72
2022-12-25T13:33:35.221Z,72
2022-12-25T13:34:42.157Z,72
2022-12-25T13:35:49.217Z,72
2022-12-25T13:36:56.395Z,72
2022-12-25T13:38:03.557Z,72
2022-12-25T13:39:10.013Z,72
2022-12-25T13:40:17.128Z,72
2022-12-25T13:41:24.417Z,72
2022-12-25T13:42:31.365Z,72
2022-12-25T13:43:38.538Z,72
2022-12-25T13:44:45.093Z,72
2022-12-25T13:45:52.279Z,72
2022-12-25T13:46:59.273Z,72
2022-12-25T13:48:06.423Z,71
2022-12-25T13:49:13.494Z,71
2022-12-25T13:50:20.639Z,71
2022-12-25T13:51:27.140Z,71
2022-12-25T13:52:34.270Z,71
2022-12-25T13:54:48.559Z,71
2022-12-25T13:55:55.039Z,71
2022-12-25T13:57:02.188Z,71
2022-12-25T13:58:09.289Z,72
2022-12-25T13:59:16.415Z,72
2022-12-25T14:00:23.533Z,72
2022-12-25T14:01:30.157Z,72
2022-12-25T14:02:37.458Z,72
2022-12-25T14:03:44.337Z,72
2022-12-25T14:04:51.443Z,72
2022-12-25T14:05:58.470Z,72
2022-12-25T14:07:06.100Z,72
2022-12-25T14:08:12.285Z,72
2022-12-25T14:09:19.292Z,72
2022-12-25T14:10:26.443Z,72
2022-12-25T14:11:33.065Z,72
2022-12-25T14:12:40.063Z,72
2022-12-25T14:14:54.395Z,72
2022-12-25T14:16:01.459Z,72
2022-12-25T14:17:08.594Z,72
2022-12-25T14:18:15.196Z,72
2022-12-25T14:19:22.230Z,72
2022-12-25T14:20:29.306Z,72
2022-12-25T14:21:36.450Z,73
2022-12-25T14:22:43.038Z,73
2022-12-25T14:23:50.218Z,73
2022-12-25T14:26:04.375Z,72
2022-12-25T14:27:11.447Z,72
2022-12-25T14:28:18.037Z,72
2022-12-25T14:29:28.359Z,72
2022-12-25T14:30:32.366Z,72
2022-12-25T14:31:39.332Z,72
2022-12-25T14:32:46.401Z,72
2022-12-25T14:33:53.019Z,72
2022-12-25T14:35:00.164Z,72
2022-12-25T14:36:06.689Z,72
2022-12-25T14:37:14.367Z,72
2022-12-25T14:38:21.513Z,72
2022-12-25T14:39:28.025Z,73
2022-12-25T14:40:35.192Z,73
2022-12-25T14:41:42.299Z,72
2022-12-25T14:42:49.348Z,72
2022-12-25T14:43:56.476Z,72
2022-12-25T14:45:03.089Z,72
2022-12-25T14:46:10.223Z,72
2022-12-25T14:47:17.271Z,72
2022-12-25T14:48:25.326Z,72
2022-12-25T14:50:38.060Z,72
2022-12-25T14:51:45.180Z,72
2022-12-25T14:52:52.249Z,72
2022-12-25T14:53:59.500Z,72
2022-12-25T14:55:06.505Z,72
2022-12-25T14:56:13.089Z,72
2022-12-25T14:57:20.169Z,72
2022-12-25T14:59:34.474Z,73
2022-12-25T15:00:41.505Z,73
2022-12-25T15:01:48.750Z,73
2022-12-25T15:02:55.468Z,73
2022-12-25T15:04:02.450Z,73
2022-12-25T15:05:09.388Z,73
2022-12-25T15:06:16.531Z,73
2022-12-25T15:07:23.084Z,73
2022-12-25T15:08:30.175Z,73
2022-12-25T15:09:37.301Z,74
2022-12-25T15:10:59.514Z,74
2022-12-25T15:11:51.489Z,74
2022-12-25T15:12:58.128Z,74
2022-12-25T15:14:05.238Z,74
2022-12-25T15:15:12.333Z,74
2022-12-25T15:16:19.436Z,74
2022-12-25T15:18:33.154Z,74
2022-12-25T15:19:40.224Z,74
2022-12-25T15:20:47.289Z,74
2022-12-25T15:21:54.432Z,74
2022-12-25T15:23:18.986Z,74
2022-12-25T15:24:08.079Z,74
2022-12-25T15:25:15.247Z,74
2022-12-25T15:26:22.336Z,74
2022-12-25T15:27:29.404Z,74
2022-12-25T15:30:09.317Z,74
2022-12-25T15:30:50.444Z,74
2022-12-25T15:31:57.336Z,74
2022-12-25T15:33:04.498Z,75
2022-12-25T15:34:11.557Z,75
2022-12-25T15:35:18.592Z,75
2022-12-25T15:36:25.258Z,75
2022-12-25T15:37:32.349Z,75
2022-12-25T15:38:39.561Z,75
2022-12-25T15:39:46.534Z,75
2022-12-25T15:40:53.159Z,75
2022-12-25T15:42:00.361Z,75
2022-12-25T15:43:20.885Z,75
2022-12-25T15:44:14.478Z,75
2022-12-25T15:45:21.074Z,75
2022-12-25T15:46:28.224Z,75
2022-12-25T15:47:35.268Z,75
2022-12-25T15:48:42.375Z,75
2022-12-25T15:49:49.413Z,75
2022-12-25T15:50:56.064Z,74
2022-12-25T15:52:03.166Z,74
2022-12-25T15:53:10.309Z,74
2022-12-25T15:54:17.308Z,74
2022-12-25T15:55:24.494Z,74
2022-12-25T15:56:31.070Z,74
2022-12-25T15:57:38.140Z,74
2022-12-25T15:58:44.782Z,74
2022-12-25T15:59:52.400Z,74
2022-12-25T16:00:59.466Z,74
2022-12-25T16:02:06.169Z,74
2022-12-25T16:03:13.367Z,74
2022-12-25T16:04:20.235Z,74
2022-12-25T16:05:27.344Z,74
2022-12-25T16:06:34.486Z,74
2022-12-25T16:07:41.175Z,74
2022-12-25T16:08:48.164Z,74
2022-12-25T16:09:55.324Z,75
2022-12-25T16:11:02.351Z,75
2022-12-25T16:12:09.489Z,76
2022-12-25T16:14:23.249Z,77
2022-12-25T16:15:30.335Z,77
2022-12-25T16:16:37.562Z,77
2022-12-25T16:17:44.458Z,77
2022-12-25T16:18:51.157Z,77
2022-12-25T16:19:58.123Z,77
2022-12-25T16:21:05.275Z,77
2022-12-25T16:22:12.367Z,77
2022-12-25T16:23:19.440Z,77
2022-12-25T16:24:26.088Z,77
2022-12-25T16:25:33.203Z,77
2022-12-25T16:27:47.406Z,77
2022-12-25T16:28:54.551Z,77
2022-12-25T16:30:01.047Z,77
2022-12-25T16:31:08.274Z,77
2022-12-25T16:33:22.374Z,78
2022-12-25T16:34:29.530Z,78
2022-12-25T16:35:36.577Z,78
2022-12-25T16:36:43.207Z,78
2022-12-25T16:37:50.333Z,78
2022-12-25T16:38:57.474Z,78
2022-12-25T16:40:04.034Z,78
2022-12-25T16:42:18.182Z,78
2022-12-25T16:43:25.409Z,78
2022-12-25T16:44:32.426Z,77
2022-12-25T16:45:39.537Z,77
2022-12-25T16:46:46.181Z,77
2022-12-25T16:47:53.245Z,77